Time;durP1;ratioP1;P1;durP2;ratioP2;P2;SDS_P1;SDS_P2;PMS_P1;PMS_P2;Temp;Humidity;BMP_temperature;BMP_pressure;BME280_temperature;BME280_humidity;BME280_pressure;Samples;Min_cycle;Max_cycle;Signal;HPM_P1;HPM_P2
2023/03/07 00:01:47;;;;;;;22.92;15.32;;;;;;;9.11;79.37;97542.28;5055011;28;20197;-59
2023/03/07 00:04:12;;;;;;;25.50;15.25;;;;;;;9.25;79.86;97578.16;5054932;28;20212;-59
2023/03/07 00:06:38;;;;;;;25.38;14.48;;;;;;;8.71;81.47;97511.88;5054644;28;20651;-59
2023/03/07 00:09:03;;;;;;;19.15;13.75;;;;;;;8.97;81.51;97562.31;5055093;28;20311;-58
2023/03/07 00:11:29;;;;;;;21.10;14.18;;;;;;;8.57;82.50;97528.38;5054474;28;20640;-58
2023/03/07 00:13:55;;;;;;;19.35;14.15;;;;;;;8.43;82.56;97513.13;5054187;28;20635;-59
2023/03/07 00:16:22;;;;;;;18.67;12.85;;;;;;;8.71;82.86;97568.59;5054147;28;20177;-59
2023/03/07 00:18:47;;;;;;;17.83;12.10;;;;;;;8.43;83.08;97532.91;5054788;28;20286;-59
2023/03/07 00:21:17;;;;;;;17.75;12.30;;;;;;;8.35;83.13;97518.03;5054267;28;20636;-59
2023/03/07 00:23:43;;;;;;;20.02;12.48;;;;;;;8.44;82.63;97521.69;5053722;28;20177;-59
2023/03/07 00:26:18;;;;;;;20.40;12.60;;;;;;;8.61;83.06;97568.47;5054453;28;20186;-59
2023/03/07 00:28:46;;;;;;;21.65;12.63;;;;;;;8.47;83.94;97562.69;5054110;28;20188;-58
2023/03/07 00:31:12;;;;;;;16.13;11.15;;;;;;;8.13;83.73;97499.06;5053845;28;20181;-58
2023/03/07 00:33:38;;;;;;;19.30;12.75;;;;;;;8.12;84.22;97502.56;5054155;28;20232;-59
2023/03/07 00:36:06;;;;;;;20.58;11.82;;;;;;;8.44;84.27;97565.50;5054100;28;20178;-59
2023/03/07 00:38:32;;;;;;;19.73;13.05;;;;;;;8.18;84.72;97515.84;5054052;28;20246;-59
2023/03/07 00:41:01;;;;;;;20.80;13.18;;;;;;;8.13;85.90;97525.66;5054022;28;20188;-59
2023/03/07 00:43:27;;;;;;;18.50;12.63;;;;;;;7.67;86.66;97460.38;5053536;28;20291;-59
2023/03/07 00:45:53;;;;;;;17.83;11.35;;;;;;;8.31;86.87;97550.09;5053907;28;20182;-59
2023/03/07 00:48:19;;;;;;;16.38;10.80;;;;;;;7.86;86.20;97503.66;5053835;28;20177;-59
2023/03/07 00:50:45;;;;;;;15.63;10.50;;;;;;;8.28;86.42;97558.03;5053667;28;20252;-58
2023/03/07 00:53:10;;;;;;;16.40;10.55;;;;;;;8.30;85.71;97556.19;5053696;28;20181;-58
2023/03/07 00:55:36;;;;;;;15.20;10.07;;;;;;;8.04;86.87;97549.47;5053620;28;20652;-59
2023/03/07 00:58:01;;;;;;;14.65;10.18;;;;;;;8.03;86.50;97529.81;5053744;28;20194;-59
2023/03/07 01:00:26;;;;;;;13.65;9.85;;;;;;;7.96;87.27;97540.66;5053630;28;20227;-58
2023/03/07 01:02:52;;;;;;;12.38;8.52;;;;;;;8.11;86.16;97540.38;5053561;28;20170;-58
2023/03/07 01:05:17;;;;;;;13.35;9.13;;;;;;;7.61;86.02;97434.22;5053544;28;20174;-58
2023/03/07 01:07:42;;;;;;;11.00;8.68;;;;;;;8.18;85.30;97531.28;5053474;28;20693;-58
2023/03/07 01:10:08;;;;;;;9.73;7.20;;;;;;;7.47;86.18;97432.66;5053368;28;20192;-58
2023/03/07 01:12:34;;;;;;;5.88;5.15;;;;;;;8.01;85.85;97510.25;5053668;28;20280;-58
2023/03/07 01:14:59;;;;;;;7.00;4.95;;;;;;;8.08;84.85;97511.44;5053344;28;20640;-58
2023/03/07 01:17:25;;;;;;;8.40;5.10;;;;;;;7.84;82.45;97452.25;5053233;28;20706;-58
2023/03/07 01:19:50;;;;;;;7.90;5.53;;;;;;;7.78;82.68;97457.00;5053491;28;20185;-58
2023/03/07 01:22:16;;;;;;;6.63;4.80;;;;;;;7.94;82.42;97473.84;5053170;28;20240;-58
2023/03/07 01:24:41;;;;;;;7.60;4.60;;;;;;;7.85;82.21;97443.59;5053118;28;20250;-58
2023/03/07 01:27:06;;;;;;;5.45;4.95;;;;;;;8.11;82.58;97480.31;5053061;28;20572;-58
2023/03/07 01:29:32;;;;;;;8.02;5.50;;;;;;;8.20;81.76;97490.78;5053368;28;20181;-58
2023/03/07 01:31:57;;;;;;;7.05;5.43;;;;;;;8.06;82.22;97485.81;5053275;28;20173;-58
2023/03/07 01:34:23;;;;;;;6.15;5.00;;;;;;;7.81;82.73;97425.91;5053286;28;20742;-58
2023/03/07 01:36:48;;;;;;;6.82;5.10;;;;;;;8.19;82.55;97478.81;5053416;28;20181;-58
2023/03/07 01:39:15;;;;;;;8.40;5.45;;;;;;;8.02;81.51;97438.03;5053170;28;20371;-59
2023/03/07 01:41:42;;;;;;;5.70;5.10;;;;;;;8.28;81.79;97478.16;5053630;28;20205;-59
2023/03/07 01:44:13;;;;;;;8.05;5.70;;;;;;;8.38;81.61;97479.13;5052804;28;20178;-59
2023/03/07 01:46:57;;;;;;;5.60;5.03;;;;;;;8.13;81.66;97432.91;5053578;28;20328;-59
2023/03/07 01:49:36;;;;;;;7.15;5.50;;;;;;;8.51;81.26;97490.16;5052703;28;20207;-59
2023/03/07 01:52:31;;;;;;;8.13;5.00;;;;;;;8.68;78.92;97507.75;5052983;28;20212;-58
2023/03/07 01:55:07;;;;;;;6.85;5.32;;;;;;;8.44;79.12;97446.94;5052354;28;20185;-59
2023/03/07 01:57:36;;;;;;;8.23;6.25;;;;;;;8.48;80.12;97443.16;5053080;28;20189;-59
2023/03/07 02:00:07;;;;;;;11.18;7.30;;;;;;;8.76;80.37;97495.13;5052533;28;20178;-59
2023/03/07 02:02:33;;;;;;;11.32;7.78;;;;;;;8.78;80.52;97513.88;5052528;28;20663;-59
2023/03/07 02:05:06;;;;;;;15.13;10.27;;;;;;;8.57;81.43;97463.13;5052708;28;20185;-59
2023/03/07 02:07:36;;;;;;;21.67;11.50;;;;;;;8.90;82.22;97512.94;5052461;28;20173;-59
2023/03/07 02:10:02;;;;;;;23.27;12.57;;;;;;;8.43;82.85;97460.72;5053045;28;20170;-59
2023/03/07 02:12:28;;;;;;;16.63;11.73;;;;;;;7.96;86.68;97466.81;5052402;28;20636;-59
2023/03/07 02:14:53;;;;;;;19.40;11.65;;;;;;;7.60;87.45;97422.31;5052633;28;20185;-59
2023/03/07 02:17:19;;;;;;;15.82;11.27;;;;;;;7.71;88.29;97455.81;5052807;28;20571;-59
2023/03/07 02:20:04;;;;;;;16.45;11.82;;;;;;;8.09;88.21;97523.41;5052054;28;20174;-59
2023/03/07 02:22:32;;;;;;;15.30;10.73;;;;;;;8.11;87.75;97509.47;5052191;28;20215;-59
2023/03/07 02:25:39;;;;;;;11.93;9.65;;;;;;;7.94;87.90;97515.03;5052582;28;20177;-59
2023/03/07 02:28:07;;;;;;;12.00;7.95;;;;;;;7.54;88.41;97464.75;5050104;28;20185;-59
2023/03/07 02:30:32;;;;;;;11.93;7.68;;;;;;;7.40;89.13;97466.66;5049904;28;20178;-59
2023/03/07 02:32:57;;;;;;;11.45;8.25;;;;;;;7.45;89.81;97475.69;5050619;28;20192;-59
2023/03/07 02:35:24;;;;;;;12.32;7.97;;;;;;;7.36;89.62;97449.78;5049847;28;20634;-59
2023/03/07 02:37:58;;;;;;;11.98;7.70;;;;;;;7.40;89.07;97440.94;5049665;28;20225;-59
2023/03/07 02:40:28;;;;;;;10.00;7.82;;;;;;;7.51;88.59;97452.09;5050128;28;20177;-59
2023/03/07 02:42:57;;;;;;;9.23;7.15;;;;;;;7.51;88.75;97444.38;5049701;28;20284;-59
2023/03/07 02:45:23;;;;;;;8.18;6.82;;;;;;;7.57;89.26;97469.66;5050171;28;20194;-59
2023/03/07 02:47:48;;;;;;;9.45;6.97;;;;;;;7.41;89.05;97438.22;5050561;28;20177;-59
2023/03/07 02:50:14;;;;;;;9.80;7.20;;;;;;;7.48;89.00;97436.06;5049686;28;20231;-59
2023/03/07 02:52:40;;;;;;;7.93;6.35;;;;;;;7.55;87.09;97435.50;5049662;28;20189;-59
2023/03/07 02:55:07;;;;;;;8.50;5.93;;;;;;;7.69;87.42;97463.66;5049815;28;20198;-59
2023/03/07 02:57:33;;;;;;;8.02;5.60;;;;;;;7.71;88.18;97500.41;5049635;28;20615;-59
2023/03/07 02:59:58;;;;;;;7.32;6.20;;;;;;;7.75;88.17;97486.38;5049908;28;20200;-59
2023/03/07 03:02:25;;;;;;;6.93;5.95;;;;;;;7.39;88.59;97444.44;5049870;28;20640;-59
2023/03/07 03:04:50;;;;;;;7.20;5.70;;;;;;;7.32;89.01;97436.34;5051274;28;20194;-59
2023/03/07 03:07:16;;;;;;;8.60;5.90;;;;;;;7.77;89.68;97499.97;5054134;28;20180;-59
2023/03/07 03:09:41;;;;;;;8.50;5.80;;;;;;;7.83;88.16;97504.69;5055638;28;20264;-59
2023/03/07 03:12:07;;;;;;;9.20;6.25;;;;;;;7.72;88.32;97493.50;5055934;28;20190;-59
2023/03/07 03:14:32;;;;;;;6.53;5.85;;;;;;;7.43;88.19;97451.84;5055855;28;20643;-59
2023/03/07 03:16:58;;;;;;;8.65;6.30;;;;;;;7.35;88.30;97458.44;5055810;28;20227;-59
2023/03/07 03:19:23;;;;;;;7.47;5.88;;;;;;;6.97;89.04;97406.28;5055546;28;20711;-59
2023/03/07 03:21:49;;;;;;;7.55;5.97;;;;;;;7.20;89.38;97455.22;5055800;28;20200;-59
2023/03/07 03:24:14;;;;;;;8.95;6.00;;;;;;;7.26;89.64;97452.19;5055442;28;20174;-59
2023/03/07 03:26:40;;;;;;;8.82;6.10;;;;;;;7.41;89.48;97478.59;5055718;28;20561;-59
2023/03/07 03:29:05;;;;;;;7.65;6.65;;;;;;;7.51;89.29;97490.69;5055628;28;20177;-59
2023/03/07 03:31:32;;;;;;;10.70;6.80;;;;;;;7.62;89.05;97507.94;5055575;28;20628;-59
2023/03/07 03:33:57;;;;;;;9.80;7.10;;;;;;;7.26;89.09;97454.78;5055300;28;20185;-60
2023/03/07 03:36:24;;;;;;;10.55;7.70;;;;;;;7.68;89.53;97521.22;5055215;28;20636;-60
2023/03/07 03:38:57;;;;;;;12.93;8.15;;;;;;;7.42;89.44;97473.34;5055092;28;20209;-60
2023/03/07 03:41:23;;;;;;;10.82;7.68;;;;;;;7.33;90.86;97507.44;5055386;28;20212;-60
2023/03/07 03:43:49;;;;;;;9.32;7.65;;;;;;;7.10;92.76;97504.84;5055115;28;20265;-60
2023/03/07 03:46:15;;;;;;;9.93;7.05;;;;;;;6.79;94.73;97495.81;5055022;28;20676;-60
2023/03/07 03:48:41;;;;;;;13.63;8.73;;;;;;;6.63;94.62;97448.09;5054906;28;20182;-60
2023/03/07 03:51:15;;;;;;;15.30;9.57;;;;;;;6.77;95.48;97492.50;5055703;28;20174;-60
2023/03/07 03:53:41;;;;;;;14.55;9.80;;;;;;;6.33;96.95;97443.31;5055461;28;20531;-60
2023/03/07 03:56:08;;;;;;;15.60;10.25;;;;;;;6.54;97.12;97446.97;5055114;28;20221;-60
2023/03/07 03:58:34;;;;;;;15.38;10.38;;;;;;;6.81;97.14;97498.28;5054666;28;20683;-60
2023/03/07 04:01:11;;;;;;;18.90;12.02;;;;;;;6.61;96.88;97449.97;5054758;28;20205;-60
2023/03/07 04:03:41;;;;;;;20.63;13.43;;;;;;;6.98;96.38;97510.78;5054783;28;20166;-60
2023/03/07 04:06:10;;;;;;;22.75;14.98;;;;;;;6.96;97.44;97513.47;5054637;28;20180;-60
2023/03/07 04:08:37;;;;;;;24.23;15.15;;;;;;;7.10;97.48;97522.84;5054590;28;20173;-60
2023/03/07 04:11:03;;;;;;;23.50;15.93;;;;;;;6.71;97.78;97467.22;5054606;28;20210;-60
2023/03/07 04:13:30;;;;;;;27.27;15.95;;;;;;;6.80;100.00;97512.03;5054437;28;20252;-60
2023/03/07 04:15:55;;;;;;;27.40;17.35;;;;;;;6.73;100.00;97516.78;5054456;28;20644;-60
2023/03/07 04:18:22;;;;;;;27.67;17.90;;;;;;;6.54;100.00;97500.13;5053544;28;20202;-60
2023/03/07 04:20:49;;;;;;;31.35;17.77;;;;;;;6.25;100.00;97473.00;5054370;28;20181;-60
2023/03/07 04:23:15;;;;;;;25.65;16.85;;;;;;;6.37;100.00;97508.97;5054365;28;20220;-60
2023/03/07 04:25:56;;;;;;;24.20;15.55;;;;;;;5.94;100.00;97473.34;5054341;28;20178;-60
2023/03/07 04:28:24;;;;;;;20.33;13.30;;;;;;;6.09;100.00;97514.25;5054863;28;20249;-60
2023/03/07 04:30:51;;;;;;;20.55;13.57;;;;;;;6.02;100.00;97501.91;5054445;28;20644;-59
2023/03/07 04:33:18;;;;;;;22.95;13.65;;;;;;;6.18;100.00;97502.56;5054708;28;20205;-60
2023/03/07 04:35:47;;;;;;;19.95;13.10;;;;;;;6.20;100.00;97506.69;5054075;28;20189;-60
2023/03/07 04:38:14;;;;;;;18.50;12.02;;;;;;;5.90;100.00;97466.78;5053990;28;20190;-60
2023/03/07 04:40:39;;;;;;;23.08;13.48;;;;;;;6.27;100.00;97525.06;5053882;28;20193;-60
2023/03/07 04:43:05;;;;;;;21.95;13.38;;;;;;;6.06;100.00;97504.19;5054287;28;20177;-60
2023/03/07 04:45:36;;;;;;;18.25;12.70;;;;;;;6.31;100.00;97527.34;5053943;28;20550;-60
2023/03/07 04:48:01;;;;;;;21.27;13.02;;;;;;;6.51;100.00;97547.41;5053916;28;20174;-59
2023/03/07 04:50:27;;;;;;;22.63;14.00;;;;;;;6.51;100.00;97533.72;5054095;28;20266;-60
2023/03/07 04:52:52;;;;;;;22.50;14.77;;;;;;;6.12;100.00;97490.13;5054038;28;20170;-60
2023/03/07 04:55:20;;;;;;;22.15;14.27;;;;;;;6.32;100.00;97531.56;5053847;28;20197;-60
2023/03/07 04:57:46;;;;;;;19.45;13.40;;;;;;;6.10;100.00;97485.09;5053919;28;20221;-60
2023/03/07 05:00:12;;;;;;;19.13;13.15;;;;;;;6.14;100.00;97501.94;5053569;28;20185;-60
2023/03/07 05:02:38;;;;;;;18.92;13.02;;;;;;;6.08;100.00;97480.97;5053635;28;20223;-60
2023/03/07 05:05:04;;;;;;;17.65;10.23;;;;;;;6.05;100.00;97497.41;5053476;28;20182;-59
2023/03/07 05:07:30;;;;;;;18.20;11.98;;;;;;;5.93;100.00;97462.25;5053799;28;20174;-60
2023/03/07 05:09:55;;;;;;;21.40;13.32;;;;;;;6.20;100.00;97511.81;5053436;28;20251;-60
2023/03/07 05:12:24;;;;;;;18.90;12.65;;;;;;;6.17;100.00;97491.47;5053350;28;20170;-60
2023/03/07 05:14:50;;;;;;;19.20;13.43;;;;;;;6.31;100.00;97500.84;5053584;28;20576;-60
2023/03/07 05:17:15;;;;;;;17.73;12.75;;;;;;;6.34;100.00;97490.34;5053207;28;20189;-60
2023/03/07 05:19:41;;;;;;;21.98;13.73;;;;;;;6.20;100.00;97496.41;5053672;28;20188;-60
2023/03/07 05:22:06;;;;;;;20.85;13.57;;;;;;;6.12;100.00;97479.88;5053690;28;20200;-60
2023/03/07 05:24:32;;;;;;;14.90;11.38;;;;;;;6.28;100.00;97498.44;5053431;28;20260;-60
2023/03/07 05:26:58;;;;;;;18.90;12.70;;;;;;;6.64;100.00;97537.94;5052790;28;20265;-60
2023/03/07 05:29:23;;;;;;;16.80;11.50;;;;;;;6.36;100.00;97466.19;5053490;28;20186;-60
2023/03/07 05:31:48;;;;;;;18.33;12.38;;;;;;;6.54;100.00;97479.56;5052731;28;20177;-59
2023/03/07 05:34:14;;;;;;;20.50;12.88;;;;;;;6.79;100.00;97511.25;5052981;28;20265;-59
2023/03/07 05:36:40;;;;;;;27.25;16.58;;;;;;;7.01;100.00;97538.88;5052949;28;20243;-59
2023/03/07 05:39:05;;;;;;;27.80;18.73;;;;;;;7.18;100.00;97543.69;5053294;28;20209;-59
2023/03/07 05:41:31;;;;;;;36.88;22.70;;;;;;;7.32;100.00;97541.81;5052847;28;20192;-59
2023/03/07 05:43:57;;;;;;;35.97;22.60;;;;;;;7.44;100.00;97537.56;5052812;28;20265;-59
2023/03/07 05:46:23;;;;;;;27.05;15.93;;;;;;;7.68;99.46;97548.72;5052736;28;20715;-59
2023/03/07 05:48:48;;;;;;;15.45;10.00;;;;;;;7.75;96.57;97529.34;5052703;28;20182;-59
2023/03/07 05:51:13;;;;;;;16.20;10.98;;;;;;;7.57;96.45;97494.59;5052941;28;20628;-59
2023/03/07 05:53:39;;;;;;;15.10;11.05;;;;;;;7.83;97.17;97540.72;5053189;28;20269;-59
2023/03/07 05:56:04;;;;;;;26.48;16.52;;;;;;;7.87;97.69;97552.44;5053145;28;20268;-59
2023/03/07 05:58:30;;;;;;;28.38;15.82;;;;;;;7.50;98.28;97499.34;5052443;28;20671;-59
2023/03/07 06:00:56;;;;;;;20.80;13.45;;;;;;;7.85;98.07;97554.31;5052482;28;20206;-59
2023/03/07 06:03:22;;;;;;;25.25;14.85;;;;;;;7.87;96.67;97549.88;5052808;28;20580;-59
2023/03/07 06:05:49;;;;;;;15.77;12.27;;;;;;;7.78;94.87;97503.34;5052456;28;20181;-59
2023/03/07 06:08:14;;;;;;;19.75;12.65;;;;;;;7.69;94.98;97493.72;5052740;28;20186;-59
2023/03/07 06:10:41;;;;;;;18.92;13.30;;;;;;;8.05;95.89;97558.84;5052102;28;20181;-59
2023/03/07 06:13:14;;;;;;;15.88;11.32;;;;;;;8.06;96.05;97551.97;5052131;28;20193;-59
2023/03/07 06:15:40;;;;;;;20.38;13.48;;;;;;;7.94;95.26;97519.34;5053210;28;20169;-59
2023/03/07 06:18:05;;;;;;;25.15;16.23;;;;;;;8.03;94.72;97514.34;5052269;28;20618;-59
2023/03/07 06:20:31;;;;;;;29.15;18.27;;;;;;;8.25;94.48;97540.25;5051686;28;20185;-60
2023/03/07 06:22:56;;;;;;;31.33;18.23;;;;;;;8.37;94.04;97559.97;5052095;28;20644;-59
2023/03/07 06:25:21;;;;;;;24.05;15.63;;;;;;;8.18;93.71;97523.56;5051804;28;20674;-59
2023/03/07 06:27:47;;;;;;;27.73;17.40;;;;;;;8.56;93.03;97564.59;5052001;28;20193;-59
2023/03/07 06:30:13;;;;;;;29.52;17.45;;;;;;;8.40;92.91;97526.22;5051814;28;20170;-59
2023/03/07 06:32:38;;;;;;;30.02;18.27;;;;;;;8.62;92.63;97579.63;5050144;28;20189;-59
2023/03/07 06:35:04;;;;;;;31.77;17.95;;;;;;;8.70;92.74;97582.44;5051922;28;20186;-59
2023/03/07 06:37:30;;;;;;;29.23;18.40;;;;;;;8.72;92.33;97572.81;5050834;28;20201;-59
2023/03/07 06:39:55;;;;;;;37.60;19.20;;;;;;;8.35;92.84;97517.19;5052039;28;20767;-59
2023/03/07 06:42:21;;;;;;;34.17;19.35;;;;;;;8.63;93.76;97571.75;5054380;28;20260;-59
2023/03/07 06:44:46;;;;;;;33.58;19.80;;;;;;;8.38;93.70;97519.56;5055359;28;20174;-59
2023/03/07 06:47:11;;;;;;;31.50;17.00;;;;;;;8.77;93.57;97573.31;5033932;28;20230;-59
2023/03/07 06:49:39;;;;;;;26.05;17.27;;;;;;;8.56;92.98;97519.00;5034300;28;20178;-59
2023/03/07 06:52:05;;;;;;;31.20;17.85;;;;;;;8.80;92.04;97537.78;5034141;28;20741;-59
2023/03/07 06:54:30;;;;;;;29.73;17.92;;;;;;;9.09;91.25;97584.63;5033459;28;20316;-59
2023/03/07 06:56:55;;;;;;;33.33;18.25;;;;;;;9.19;91.22;97585.53;5033805;28;20353;-59
2023/03/07 06:59:21;;;;;;;29.38;17.52;;;;;;;8.76;90.62;97495.13;5034288;28;20279;-59
2023/03/07 07:01:47;;;;;;;35.70;19.08;;;;;;;9.37;89.46;97587.56;5033880;28;20265;-59
2023/03/07 07:04:13;;;;;;;34.83;19.45;;;;;;;9.11;89.80;97510.50;5034024;28;20558;-59
2023/03/07 07:06:38;;;;;;;25.40;16.85;;;;;;;9.43;88.34;97561.25;5033546;28;20170;-59
2023/03/07 07:09:04;;;;;;;26.17;16.20;;;;;;;9.73;86.96;97587.28;5033498;28;20265;-59
2023/03/07 07:11:30;;;;;;;28.27;16.83;;;;;;;9.57;89.17;97545.53;5033494;28;20735;-59
2023/03/07 07:13:55;;;;;;;30.83;18.77;;;;;;;9.84;89.17;97582.09;5033652;28;20649;-59
2023/03/07 07:16:21;;;;;;;35.33;20.02;;;;;;;9.78;90.00;97554.16;5033367;28;20692;-59
2023/03/07 07:18:49;;;;;;;32.95;19.63;;;;;;;10.08;90.57;97593.13;5033478;28;20218;-59
2023/03/07 07:21:15;;;;;;;29.17;18.40;;;;;;;10.07;91.21;97594.06;5033461;28;20692;-59
2023/03/07 07:23:40;;;;;;;31.73;18.33;;;;;;;10.18;90.49;97591.44;5036075;28;20186;-59
2023/03/07 07:26:06;;;;;;;26.63;16.70;;;;;;;10.05;91.51;97585.63;5055436;28;20224;-59
2023/03/07 07:28:31;;;;;;;24.75;16.05;;;;;;;10.16;92.37;97598.50;5055604;28;20196;-59
2023/03/07 07:30:56;;;;;;;23.48;15.55;;;;;;;10.17;91.41;97582.06;5055344;28;20173;-59
2023/03/07 07:33:22;;;;;;;25.45;16.83;;;;;;;10.26;90.80;97596.81;5054972;28;20182;-59
2023/03/07 07:35:47;;;;;;;24.60;16.50;;;;;;;9.73;90.34;97502.88;5033349;28;20186;-59
2023/03/07 07:38:13;;;;;;;27.75;17.73;;;;;;;10.25;91.09;97588.25;5033540;28;20268;-60
2023/03/07 07:40:39;;;;;;;24.30;16.80;;;;;;;10.33;90.95;97592.81;5033364;28;20229;-59
2023/03/07 07:43:04;;;;;;;30.48;16.70;;;;;;;10.48;90.39;97599.31;5032870;28;20278;-59
2023/03/07 07:45:30;;;;;;;30.30;17.40;;;;;;;10.58;90.05;97597.63;5032967;28;20190;-59
2023/03/07 07:47:55;;;;;;;21.77;15.10;;;;;;;10.22;88.58;97548.91;5033039;28;20210;-59
2023/03/07 07:50:23;;;;;;;23.08;14.95;;;;;;;10.23;88.86;97537.63;5032837;28;20189;-59
2023/03/07 07:52:51;;;;;;;23.08;15.25;;;;;;;10.45;88.41;97558.22;5031818;28;20288;-59
2023/03/07 07:55:16;;;;;;;23.83;15.90;;;;;;;10.74;88.31;97591.06;5032260;28;20198;-59
2023/03/07 07:57:42;;;;;;;22.45;14.65;;;;;;;10.39;88.18;97512.16;5032572;28;20703;-59
2023/03/07 08:00:10;;;;;;;31.98;17.98;;;;;;;10.83;87.29;97555.88;5032549;28;20244;-59
2023/03/07 08:02:36;;;;;;;31.17;17.83;;;;;;;11.29;85.38;97595.91;5032443;28;20264;-59
2023/03/07 08:05:05;;;;;;;29.80;16.67;;;;;;;11.45;84.28;97592.84;5032962;28;20228;-59
2023/03/07 08:07:31;;;;;;;23.30;16.40;;;;;;;11.20;83.52;97534.53;5050460;28;20396;-59
2023/03/07 08:09:56;;;;;;;23.65;16.15;;;;;;;11.33;82.65;97529.13;5054675;28;20647;-59
2023/03/07 08:12:21;;;;;;;25.15;16.02;;;;;;;11.31;81.84;97533.63;5055145;28;20174;-59
2023/03/07 08:14:47;;;;;;;22.95;14.27;;;;;;;11.31;82.17;97528.44;5054832;28;20181;-60
2023/03/07 08:17:12;;;;;;;24.42;15.48;;;;;;;11.52;81.76;97539.56;5054178;28;20261;-59
2023/03/07 08:19:37;;;;;;;61.38;18.23;;;;;;;11.88;80.81;97583.06;5054379;28;20196;-59
2023/03/07 08:22:03;;;;;;;25.60;14.85;;;;;;;12.02;78.93;97591.25;5054072;28;20625;-60
2023/03/07 08:24:31;;;;;;;20.05;13.80;;;;;;;11.87;78.07;97542.53;5054082;28;20174;-60
2023/03/07 08:26:57;;;;;;;19.00;13.30;;;;;;;12.01;77.82;97578.47;5032418;28;20189;-60
2023/03/07 08:29:22;;;;;;;18.92;13.80;;;;;;;12.06;78.22;97573.66;5032211;28;20678;-60
2023/03/07 08:31:50;;;;;;;22.83;14.23;;;;;;;12.20;77.66;97584.47;5032001;28;20194;-60
2023/03/07 08:34:16;;;;;;;24.67;14.52;;;;;;;12.29;77.05;97575.88;5031910;28;20182;-59
2023/03/07 08:36:41;;;;;;;21.60;14.20;;;;;;;12.38;76.37;97575.06;5032686;28;20273;-59
2023/03/07 08:39:07;;;;;;;18.83;12.60;;;;;;;12.39;74.81;97548.19;5031944;28;20244;-59
2023/03/07 08:41:32;;;;;;;25.42;14.07;;;;;;;12.42;75.49;97545.31;5031769;28;20722;-59
2023/03/07 08:43:57;;;;;;;22.35;14.18;;;;;;;12.71;75.91;97574.63;5032018;28;20181;-59
2023/03/07 08:46:23;;;;;;;18.95;13.95;;;;;;;12.77;76.28;97573.28;5031951;28;20186;-59
2023/03/07 08:48:48;;;;;;;21.10;13.85;;;;;;;12.68;76.38;97558.53;5031663;28;20174;-60
2023/03/07 08:51:16;;;;;;;19.15;13.35;;;;;;;12.77;76.50;97553.31;5031713;28;20568;-60
2023/03/07 08:53:43;;;;;;;20.10;13.40;;;;;;;13.06;74.90;97592.25;5031505;28;20289;-60
2023/03/07 08:56:10;;;;;;;20.15;13.02;;;;;;;12.80;74.56;97547.03;5031591;28;20198;-60
2023/03/07 08:58:36;;;;;;;22.55;13.48;;;;;;;12.71;75.36;97538.31;5031579;28;20284;-60
2023/03/07 09:01:02;;;;;;;19.52;13.50;;;;;;;12.86;75.45;97546.47;5031952;28;20269;-60
2023/03/07 09:03:27;;;;;;;22.08;14.45;;;;;;;13.16;75.08;97585.25;5034178;28;20182;-60
2023/03/07 09:05:53;;;;;;;22.90;13.98;;;;;;;12.89;75.43;97535.81;5053759;28;20206;-60
2023/03/07 09:08:18;;;;;;;18.42;13.57;;;;;;;12.79;75.66;97541.03;5054015;28;20547;-60
2023/03/07 09:10:44;;;;;;;21.88;14.70;;;;;;;12.95;75.88;97550.84;5053449;28;20620;-60
2023/03/07 09:13:10;;;;;;;25.75;13.80;;;;;;;12.82;75.41;97530.38;5053437;28;20182;-60
2023/03/07 09:15:38;;;;;;;23.70;14.35;;;;;;;12.73;75.44;97499.25;5053310;28;20181;-60
2023/03/07 09:18:04;;;;;;;20.42;14.05;;;;;;;13.31;74.08;97591.63;5053175;28;20198;-60
2023/03/07 09:20:29;;;;;;;19.08;13.95;;;;;;;12.85;73.09;97503.31;5053315;28;20177;-60
2023/03/07 09:22:54;;;;;;;22.38;13.57;;;;;;;13.40;72.80;97585.56;5053216;28;20247;-60
2023/03/07 09:25:20;;;;;;;26.40;14.23;;;;;;;13.23;71.46;97547.34;5053689;28;20264;-60
2023/03/07 09:27:46;;;;;;;24.08;14.48;;;;;;;13.36;71.40;97563.44;5053969;28;20192;-60
2023/03/07 09:30:13;;;;;;;19.48;13.55;;;;;;;13.42;70.93;97555.09;5053031;28;20643;-60
2023/03/07 09:32:39;;;;;;;15.68;12.00;;;;;;;13.42;70.64;97544.69;5053616;28;20170;-60
2023/03/07 09:35:05;;;;;;;22.05;13.20;;;;;;;13.79;69.57;97584.44;5053315;28;20696;-60
2023/03/07 09:37:33;;;;;;;18.83;12.38;;;;;;;13.88;68.58;97592.19;5052510;28;20241;-60
2023/03/07 09:39:59;;;;;;;20.50;13.55;;;;;;;13.64;68.61;97533.91;5051024;28;20284;-60
2023/03/07 09:42:45;;;;;;;20.17;14.23;;;;;;;14.06;68.02;97597.44;5053185;28;20170;-60
2023/03/07 09:45:34;;;;;;;19.75;13.55;;;;;;;14.14;68.47;97589.72;5053188;28;20166;-60
2023/03/07 09:48:15;;;;;;;23.00;14.70;;;;;;;14.19;69.04;97596.16;5053109;28;20177;-60
2023/03/07 09:51:01;;;;;;;17.13;12.48;;;;;;;14.27;68.04;97592.81;5053121;28;20174;-60
2023/03/07 09:53:44;;;;;;;23.50;14.20;;;;;;;14.09;67.27;97548.53;5053868;28;20182;-60
2023/03/07 09:56:20;;;;;;;19.10;13.13;;;;;;;14.35;66.66;97578.09;5053186;28;20197;-60
2023/03/07 09:58:54;;;;;;;19.63;13.35;;;;;;;14.19;66.28;97535.50;5052010;28;20197;-60
2023/03/07 10:01:25;;;;;;;19.98;13.80;;;;;;;14.49;66.01;97555.94;5034706;28;20280;-60
2023/03/07 10:04:01;;;;;;;25.33;12.93;;;;;;;14.56;64.47;97541.34;5052565;28;20174;-59
2023/03/07 10:06:29;;;;;;;18.27;12.05;;;;;;;14.92;64.27;97582.00;5053389;28;20208;-59
2023/03/07 10:08:57;;;;;;;15.13;11.43;;;;;;;15.02;62.54;97570.50;5052806;28;20251;-59
2023/03/07 10:11:23;;;;;;;17.52;12.70;;;;;;;15.08;63.11;97574.28;5052136;28;20601;-60
2023/03/07 10:14:10;;;;;;;16.08;10.98;;;;;;;15.17;61.78;97576.00;5052384;28;20205;-60
2023/03/07 10:17:11;;;;;;;16.33;10.90;;;;;;;15.27;60.82;97571.50;5051754;28;20181;-60
2023/03/07 10:19:49;;;;;;;16.20;11.35;;;;;;;15.25;61.08;97556.00;5052457;28;20168;-60
2023/03/07 10:22:42;;;;;;;15.48;11.95;;;;;;;15.29;60.21;97564.31;5052668;28;20176;-60
2023/03/07 10:25:33;;;;;;;66.15;30.73;;;;;;;15.10;60.31;97517.66;5052924;28;20261;-59
2023/03/07 10:28:23;;;;;;;20.10;11.95;;;;;;;15.45;59.60;97554.03;5052567;28;20173;-60
2023/03/07 10:30:56;;;;;;;32.67;18.25;;;;;;;15.55;60.44;97539.88;5051474;28;20570;-59
2023/03/07 10:33:21;;;;;;;18.25;12.38;;;;;;;14.82;59.92;97488.31;5052278;28;20249;-59
2023/03/07 10:35:56;;;;;;;15.50;11.38;;;;;;;15.04;60.59;97487.81;5052262;28;20260;-60
2023/03/07 10:38:32;;;;;;;19.35;11.18;;;;;;;15.32;60.58;97496.22;5052693;28;20342;-60
2023/03/07 10:41:09;;;;;;;16.40;11.60;;;;;;;15.88;60.25;97523.38;5051975;28;20252;-59
2023/03/07 10:43:35;;;;;;;15.93;10.98;;;;;;;16.07;58.50;97517.03;5053042;28;20176;-60
2023/03/07 10:46:20;;;;;;;15.60;11.75;;;;;;;16.08;57.50;97479.53;5051702;28;20185;-60
2023/03/07 10:48:51;;;;;;;14.65;11.65;;;;;;;16.44;57.16;97507.81;5052352;28;20178;-60
2023/03/07 10:51:29;;;;;;;12.32;10.05;;;;;;;16.42;56.21;97488.06;5051553;28;20170;-59
2023/03/07 10:53:56;;;;;;;11.95;9.82;;;;;;;16.41;55.81;97495.09;5052389;28;20182;-60
2023/03/07 10:56:23;;;;;;;18.25;11.77;;;;;;;16.81;55.81;97505.53;5051708;28;20193;-60
2023/03/07 10:59:09;;;;;;;17.35;11.25;;;;;;;16.84;54.36;97467.81;5064001;28;20213;-60
2023/03/07 11:01:36;;;;;;;212.80;72.53;;;;;;;17.07;53.63;97493.03;5052275;28;20176;-59
2023/03/07 11:04:04;;;;;;;36.65;27.50;;;;;;;16.63;52.52;97457.03;5052194;28;20200;-59
2023/03/07 11:06:32;;;;;;;94.07;33.72;;;;;;;16.59;51.24;97485.28;5052138;28;20185;-60
2023/03/07 11:09:33;;;;;;;324.80;103.18;;;;;;;16.42;52.34;97486.28;5051939;28;20185;-60
2023/03/07 11:12:04;;;;;;;15.30;8.63;;;;;;;16.37;51.06;97479.88;5050687;28;20174;-60
2023/03/07 11:14:45;;;;;;;10.65;7.32;;;;;;;16.52;50.96;97473.88;5050954;28;20184;-60
2023/03/07 11:17:42;;;;;;;8.85;7.07;;;;;;;16.58;51.70;97462.78;5052054;28;20165;-60
2023/03/07 11:20:26;;;;;;;8.85;6.18;;;;;;;16.41;51.05;97455.09;5030955;28;20560;-60
2023/03/07 11:23:32;;;;;;;208.68;67.80;;;;;;;16.27;51.07;97453.94;5030277;28;20244;-60
2023/03/07 11:26:15;;;;;;;135.15;45.08;;;;;;;15.86;51.84;97410.53;5009614;28;20186;-60
2023/03/07 11:28:40;;;;;;;40.95;17.48;;;;;;;15.62;53.03;97396.66;5012709;28;20191;-60
2023/03/07 11:31:06;;;;;;;23.02;11.60;;;;;;;15.87;53.61;97445.28;5013376;28;20689;-60